sensor_id;sensor_type;location;lat;lon;timestamp;P1;durP1;ratioP1;P2;durP2;ratioP2
66585;SDS011;53444;45.822;16.092;2024-02-28T00:02:01;71.65;;;34.33;;
66585;SDS011;53444;45.822;16.092;2024-02-28T00:04:28;69.97;;;35.28;;
66585;SDS011;53444;45.822;16.092;2024-02-28T00:06:55;67.57;;;34.45;;
66585;SDS011;53444;45.822;16.092;2024-02-28T00:09:22;66.33;;;34.53;;
66585;SDS011;53444;45.822;16.092;2024-02-28T00:11:48;66.88;;;35.03;;
66585;SDS011;53444;45.822;16.092;2024-02-28T00:14:15;70.28;;;35.45;;
66585;SDS011;53444;45.822;16.092;2024-02-28T00:16:44;71.03;;;35.47;;
66585;SDS011;53444;45.822;16.092;2024-02-28T00:19:11;70.47;;;34.78;;
66585;SDS011;53444;45.822;16.092;2024-02-28T00:21:39;66.35;;;36.47;;
66585;SDS011;53444;45.822;16.092;2024-02-28T00:24:05;68.25;;;35.55;;
66585;SDS011;53444;45.822;16.092;2024-02-28T00:26:32;66.00;;;34.72;;
66585;SDS011;53444;45.822;16.092;2024-02-28T00:28:59;67.20;;;36.15;;
66585;SDS011;53444;45.822;16.092;2024-02-28T00:31:26;68.10;;;34.58;;
66585;SDS011;53444;45.822;16.092;2024-02-28T00:33:54;63.80;;;35.67;;
66585;SDS011;53444;45.822;16.092;2024-02-28T00:36:20;62.70;;;35.05;;
66585;SDS011;53444;45.822;16.092;2024-02-28T00:38:47;65.55;;;34.85;;
66585;SDS011;53444;45.822;16.092;2024-02-28T00:41:14;67.53;;;33.92;;
66585;SDS011;53444;45.822;16.092;2024-02-28T00:43:40;63.88;;;33.33;;
66585;SDS011;53444;45.822;16.092;2024-02-28T00:46:07;60.78;;;32.50;;
66585;SDS011;53444;45.822;16.092;2024-02-28T00:48:37;56.58;;;32.55;;
66585;SDS011;53444;45.822;16.092;2024-02-28T00:51:05;65.78;;;32.90;;
66585;SDS011;53444;45.822;16.092;2024-02-28T00:53:33;59.40;;;31.80;;
66585;SDS011;53444;45.822;16.092;2024-02-28T00:56:00;63.03;;;32.88;;
66585;SDS011;53444;45.822;16.092;2024-02-28T00:58:26;64.95;;;32.72;;
66585;SDS011;53444;45.822;16.092;2024-02-28T01:00:55;59.15;;;32.42;;
66585;SDS011;53444;45.822;16.092;2024-02-28T01:03:23;59.53;;;32.72;;
66585;SDS011;53444;45.822;16.092;2024-02-28T01:05:49;59.70;;;31.25;;
66585;SDS011;53444;45.822;16.092;2024-02-28T01:08:18;67.43;;;33.75;;
66585;SDS011;53444;45.822;16.092;2024-02-28T01:10:45;59.42;;;31.20;;
66585;SDS011;53444;45.822;16.092;2024-02-28T01:13:12;62.80;;;32.53;;
66585;SDS011;53444;45.822;16.092;2024-02-28T01:15:39;60.63;;;31.02;;
66585;SDS011;53444;45.822;16.092;2024-02-28T01:18:06;59.78;;;31.13;;
66585;SDS011;53444;45.822;16.092;2024-02-28T01:20:33;59.15;;;31.35;;
66585;SDS011;53444;45.822;16.092;2024-02-28T01:23:00;59.92;;;30.20;;
66585;SDS011;53444;45.822;16.092;2024-02-28T01:25:28;55.58;;;29.42;;
66585;SDS011;53444;45.822;16.092;2024-02-28T01:27:55;59.22;;;29.65;;
66585;SDS011;53444;45.822;16.092;2024-02-28T01:30:23;58.30;;;28.65;;
66585;SDS011;53444;45.822;16.092;2024-02-28T01:32:49;49.88;;;26.75;;
66585;SDS011;53444;45.822;16.092;2024-02-28T01:35:16;54.10;;;28.00;;
66585;SDS011;53444;45.822;16.092;2024-02-28T01:37:43;50.40;;;27.10;;
66585;SDS011;53444;45.822;16.092;2024-02-28T01:40:10;51.03;;;27.80;;
66585;SDS011;53444;45.822;16.092;2024-02-28T01:42:41;53.40;;;27.27;;
66585;SDS011;53444;45.822;16.092;2024-02-28T01:45:08;48.97;;;28.10;;
66585;SDS011;53444;45.822;16.092;2024-02-28T01:47:39;48.35;;;26.40;;
66585;SDS011;53444;45.822;16.092;2024-02-28T01:50:06;51.70;;;26.58;;
66585;SDS011;53444;45.822;16.092;2024-02-28T01:52:37;53.58;;;28.20;;
66585;SDS011;53444;45.822;16.092;2024-02-28T01:55:05;47.28;;;25.90;;
66585;SDS011;53444;45.822;16.092;2024-02-28T01:57:33;48.58;;;28.35;;
66585;SDS011;53444;45.822;16.092;2024-02-28T02:00:03;49.93;;;28.00;;
66585;SDS011;53444;45.822;16.092;2024-02-28T02:02:33;49.08;;;26.98;;
66585;SDS011;53444;45.822;16.092;2024-02-28T02:05:00;51.55;;;27.98;;
66585;SDS011;53444;45.822;16.092;2024-02-28T02:07:26;49.75;;;27.65;;
66585;SDS011;53444;45.822;16.092;2024-02-28T02:09:53;51.58;;;27.85;;
66585;SDS011;53444;45.822;16.092;2024-02-28T02:12:21;54.03;;;27.97;;
66585;SDS011;53444;45.822;16.092;2024-02-28T02:14:48;48.97;;;27.38;;
66585;SDS011;53444;45.822;16.092;2024-02-28T02:17:16;51.40;;;27.13;;
66585;SDS011;53444;45.822;16.092;2024-02-28T02:19:42;51.95;;;26.83;;
66585;SDS011;53444;45.822;16.092;2024-02-28T02:22:09;47.03;;;26.40;;
66585;SDS011;53444;45.822;16.092;2024-02-28T02:24:40;46.10;;;25.35;;
66585;SDS011;53444;45.822;16.092;2024-02-28T02:27:07;46.80;;;26.30;;
66585;SDS011;53444;45.822;16.092;2024-02-28T02:29:34;50.17;;;27.45;;
66585;SDS011;53444;45.822;16.092;2024-02-28T02:32:00;48.05;;;26.40;;
66585;SDS011;53444;45.822;16.092;2024-02-28T02:34:27;47.35;;;27.05;;
66585;SDS011;53444;45.822;16.092;2024-02-28T02:36:53;48.47;;;27.75;;
66585;SDS011;53444;45.822;16.092;2024-02-28T02:39:20;44.13;;;26.40;;
66585;SDS011;53444;45.822;16.092;2024-02-28T02:41:48;53.83;;;28.60;;
66585;SDS011;53444;45.822;16.092;2024-02-28T02:44:15;46.70;;;25.90;;
66585;SDS011;53444;45.822;16.092;2024-02-28T02:46:41;45.13;;;25.77;;
66585;SDS011;53444;45.822;16.092;2024-02-28T02:49:08;48.50;;;26.40;;
66585;SDS011;53444;45.822;16.092;2024-02-28T02:51:35;46.10;;;26.02;;
66585;SDS011;53444;45.822;16.092;2024-02-28T02:54:02;45.65;;;25.65;;
66585;SDS011;53444;45.822;16.092;2024-02-28T02:56:28;46.83;;;27.63;;
66585;SDS011;53444;45.822;16.092;2024-02-28T02:58:57;50.17;;;27.58;;
66585;SDS011;53444;45.822;16.092;2024-02-28T03:01:24;52.03;;;26.33;;
66585;SDS011;53444;45.822;16.092;2024-02-28T03:03:51;49.10;;;25.75;;
66585;SDS011;53444;45.822;16.092;2024-02-28T03:06:17;46.45;;;25.23;;
66585;SDS011;53444;45.822;16.092;2024-02-28T03:08:44;51.90;;;27.20;;
66585;SDS011;53444;45.822;16.092;2024-02-28T03:11:11;48.95;;;25.60;;
66585;SDS011;53444;45.822;16.092;2024-02-28T03:13:38;48.92;;;27.23;;
66585;SDS011;53444;45.822;16.092;2024-02-28T03:16:06;47.88;;;25.98;;
66585;SDS011;53444;45.822;16.092;2024-02-28T03:18:33;46.20;;;25.58;;
66585;SDS011;53444;45.822;16.092;2024-02-28T03:21:00;51.05;;;26.25;;
66585;SDS011;53444;45.822;16.092;2024-02-28T03:23:27;50.63;;;25.58;;
66585;SDS011;53444;45.822;16.092;2024-02-28T03:25:53;51.10;;;25.98;;
66585;SDS011;53444;45.822;16.092;2024-02-28T03:28:20;44.58;;;25.83;;
66585;SDS011;53444;45.822;16.092;2024-02-28T03:30:47;50.20;;;26.85;;
66585;SDS011;53444;45.822;16.092;2024-02-28T03:33:15;49.03;;;27.50;;
66585;SDS011;53444;45.822;16.092;2024-02-28T03:35:41;52.00;;;28.27;;
66585;SDS011;53444;45.822;16.092;2024-02-28T03:38:08;45.03;;;25.80;;
66585;SDS011;53444;45.822;16.092;2024-02-28T03:40:35;44.13;;;24.95;;
66585;SDS011;53444;45.822;16.092;2024-02-28T03:43:01;47.17;;;26.08;;
66585;SDS011;53444;45.822;16.092;2024-02-28T03:45:28;41.22;;;24.48;;
66585;SDS011;53444;45.822;16.092;2024-02-28T03:47:55;43.33;;;25.17;;
66585;SDS011;53444;45.822;16.092;2024-02-28T03:50:23;42.53;;;24.90;;
66585;SDS011;53444;45.822;16.092;2024-02-28T03:52:50;45.17;;;24.17;;
66585;SDS011;53444;45.822;16.092;2024-02-28T03:55:17;48.60;;;25.85;;
66585;SDS011;53444;45.822;16.092;2024-02-28T03:57:46;67.40;;;30.60;;
66585;SDS011;53444;45.822;16.092;2024-02-28T04:00:13;52.35;;;25.40;;
66585;SDS011;53444;45.822;16.092;2024-02-28T04:02:40;51.92;;;25.73;;
66585;SDS011;53444;45.822;16.092;2024-02-28T04:05:07;47.70;;;25.98;;
66585;SDS011;53444;45.822;16.092;2024-02-28T04:07:35;43.72;;;23.38;;
66585;SDS011;53444;45.822;16.092;2024-02-28T04:10:02;45.22;;;24.23;;
66585;SDS011;53444;45.822;16.092;2024-02-28T04:12:30;43.80;;;24.55;;
66585;SDS011;53444;45.822;16.092;2024-02-28T04:14:57;51.20;;;26.48;;
66585;SDS011;53444;45.822;16.092;2024-02-28T04:17:23;47.08;;;24.95;;
66585;SDS011;53444;45.822;16.092;2024-02-28T04:19:50;46.72;;;26.58;;
66585;SDS011;53444;45.822;16.092;2024-02-28T04:22:17;48.63;;;26.25;;
66585;SDS011;53444;45.822;16.092;2024-02-28T04:24:45;52.05;;;25.88;;
66585;SDS011;53444;45.822;16.092;2024-02-28T04:27:11;50.47;;;26.67;;
66585;SDS011;53444;45.822;16.092;2024-02-28T04:29:38;48.17;;;27.08;;
66585;SDS011;53444;45.822;16.092;2024-02-28T04:32:05;50.95;;;27.48;;
66585;SDS011;53444;45.822;16.092;2024-02-28T04:34:32;48.53;;;28.20;;
66585;SDS011;53444;45.822;16.092;2024-02-28T04:36:58;56.78;;;28.55;;
66585;SDS011;53444;45.822;16.092;2024-02-28T04:39:28;58.80;;;29.75;;
66585;SDS011;53444;45.822;16.092;2024-02-28T04:41:56;57.05;;;30.60;;
66585;SDS011;53444;45.822;16.092;2024-02-28T04:47:01;53.35;;;29.65;;
66585;SDS011;53444;45.822;16.092;2024-02-28T04:49:36;52.92;;;28.65;;
66585;SDS011;53444;45.822;16.092;2024-02-28T04:52:03;55.07;;;28.97;;
66585;SDS011;53444;45.822;16.092;2024-02-28T04:54:36;54.72;;;27.67;;
66585;SDS011;53444;45.822;16.092;2024-02-28T04:57:09;54.22;;;27.83;;
66585;SDS011;53444;45.822;16.092;2024-02-28T04:59:36;51.33;;;27.48;;
66585;SDS011;53444;45.822;16.092;2024-02-28T05:02:08;50.95;;;28.98;;
66585;SDS011;53444;45.822;16.092;2024-02-28T05:04:35;55.83;;;28.40;;
66585;SDS011;53444;45.822;16.092;2024-02-28T05:07:01;51.72;;;28.23;;
66585;SDS011;53444;45.822;16.092;2024-02-28T05:09:34;54.15;;;27.58;;
66585;SDS011;53444;45.822;16.092;2024-02-28T05:12:01;49.08;;;26.27;;
66585;SDS011;53444;45.822;16.092;2024-02-28T05:14:30;51.15;;;26.67;;
66585;SDS011;53444;45.822;16.092;2024-02-28T05:16:57;53.40;;;27.30;;
66585;SDS011;53444;45.822;16.092;2024-02-28T05:19:29;55.25;;;27.10;;
66585;SDS011;53444;45.822;16.092;2024-02-28T05:21:56;64.47;;;29.70;;
66585;SDS011;53444;45.822;16.092;2024-02-28T05:24:23;62.10;;;30.90;;
66585;SDS011;53444;45.822;16.092;2024-02-28T05:26:55;59.65;;;28.30;;
66585;SDS011;53444;45.822;16.092;2024-02-28T05:29:22;62.33;;;30.67;;
66585;SDS011;53444;45.822;16.092;2024-02-28T05:31:54;55.47;;;28.42;;
66585;SDS011;53444;45.822;16.092;2024-02-28T05:34:22;60.45;;;29.67;;
66585;SDS011;53444;45.822;16.092;2024-02-28T05:36:48;47.03;;;25.88;;
66585;SDS011;53444;45.822;16.092;2024-02-28T05:39:21;52.92;;;28.15;;
66585;SDS011;53444;45.822;16.092;2024-02-28T05:41:48;49.53;;;27.97;;
66585;SDS011;53444;45.822;16.092;2024-02-28T05:44:14;49.50;;;26.98;;
66585;SDS011;53444;45.822;16.092;2024-02-28T05:46:41;46.75;;;26.13;;
66585;SDS011;53444;45.822;16.092;2024-02-28T05:49:10;50.92;;;26.02;;
66585;SDS011;53444;45.822;16.092;2024-02-28T05:51:39;46.58;;;25.23;;
66585;SDS011;53444;45.822;16.092;2024-02-28T05:54:06;43.80;;;25.13;;
66585;SDS011;53444;45.822;16.092;2024-02-28T05:56:33;46.47;;;24.73;;
66585;SDS011;53444;45.822;16.092;2024-02-28T05:59:01;46.88;;;26.15;;
66585;SDS011;53444;45.822;16.092;2024-02-28T06:01:29;48.80;;;25.92;;
66585;SDS011;53444;45.822;16.092;2024-02-28T06:03:58;47.25;;;24.23;;
66585;SDS011;53444;45.822;16.092;2024-02-28T06:06:26;50.87;;;26.50;;
66585;SDS011;53444;45.822;16.092;2024-02-28T06:08:52;47.20;;;25.45;;
66585;SDS011;53444;45.822;16.092;2024-02-28T06:11:19;49.53;;;27.10;;
66585;SDS011;53444;45.822;16.092;2024-02-28T06:13:46;47.25;;;26.55;;
66585;SDS011;53444;45.822;16.092;2024-02-28T06:16:22;53.08;;;25.10;;
66585;SDS011;53444;45.822;16.092;2024-02-28T06:18:48;49.13;;;26.23;;
66585;SDS011;53444;45.822;16.092;2024-02-28T06:21:15;48.47;;;25.75;;
66585;SDS011;53444;45.822;16.092;2024-02-28T06:23:44;46.70;;;25.63;;
66585;SDS011;53444;45.822;16.092;2024-02-28T06:26:10;50.47;;;26.98;;
66585;SDS011;53444;45.822;16.092;2024-02-28T06:28:41;51.05;;;25.92;;
66585;SDS011;53444;45.822;16.092;2024-02-28T06:31:14;104.77;;;45.57;;
66585;SDS011;53444;45.822;16.092;2024-02-28T06:33:41;87.78;;;41.28;;
66585;SDS011;53444;45.822;16.092;2024-02-28T06:36:08;73.57;;;35.75;;
66585;SDS011;53444;45.822;16.092;2024-02-28T06:38:37;54.17;;;29.88;;
66585;SDS011;53444;45.822;16.092;2024-02-28T06:41:05;52.92;;;27.80;;
66585;SDS011;53444;45.822;16.092;2024-02-28T06:43:32;45.05;;;24.23;;
66585;SDS011;53444;45.822;16.092;2024-02-28T06:46:00;48.00;;;25.52;;
66585;SDS011;53444;45.822;16.092;2024-02-28T06:48:27;48.58;;;26.25;;
66585;SDS011;53444;45.822;16.092;2024-02-28T06:50:54;49.55;;;26.55;;
66585;SDS011;53444;45.822;16.092;2024-02-28T06:53:21;52.15;;;26.83;;
66585;SDS011;53444;45.822;16.092;2024-02-28T06:55:48;48.60;;;26.55;;
66585;SDS011;53444;45.822;16.092;2024-02-28T06:58:16;53.63;;;27.38;;
66585;SDS011;53444;45.822;16.092;2024-02-28T07:00:43;59.28;;;28.58;;
66585;SDS011;53444;45.822;16.092;2024-02-28T07:03:10;51.03;;;28.30;;
66585;SDS011;53444;45.822;16.092;2024-02-28T07:05:36;52.13;;;27.25;;
66585;SDS011;53444;45.822;16.092;2024-02-28T07:08:04;50.33;;;26.08;;
66585;SDS011;53444;45.822;16.092;2024-02-28T07:10:38;54.28;;;24.58;;
66585;SDS011;53444;45.822;16.092;2024-02-28T07:13:08;44.78;;;24.30;;
66585;SDS011;53444;45.822;16.092;2024-02-28T07:15:37;45.25;;;24.13;;
66585;SDS011;53444;45.822;16.092;2024-02-28T07:18:05;46.65;;;22.48;;
66585;SDS011;53444;45.822;16.092;2024-02-28T07:20:31;39.83;;;22.60;;
66585;SDS011;53444;45.822;16.092;2024-02-28T07:22:58;44.17;;;25.45;;
66585;SDS011;53444;45.822;16.092;2024-02-28T07:25:25;50.47;;;26.08;;
66585;SDS011;53444;45.822;16.092;2024-02-28T07:27:52;50.92;;;26.42;;
66585;SDS011;53444;45.822;16.092;2024-02-28T07:30:18;50.78;;;26.88;;
66585;SDS011;53444;45.822;16.092;2024-02-28T07:32:46;48.37;;;26.97;;
66585;SDS011;53444;45.822;16.092;2024-02-28T07:35:14;51.53;;;27.85;;
66585;SDS011;53444;45.822;16.092;2024-02-28T07:37:41;54.55;;;27.25;;
66585;SDS011;53444;45.822;16.092;2024-02-28T07:40:08;53.50;;;29.10;;
66585;SDS011;53444;45.822;16.092;2024-02-28T07:42:35;56.80;;;28.98;;
66585;SDS011;53444;45.822;16.092;2024-02-28T07:45:02;51.67;;;28.53;;
66585;SDS011;53444;45.822;16.092;2024-02-28T07:47:29;55.78;;;29.25;;
66585;SDS011;53444;45.822;16.092;2024-02-28T07:49:57;47.47;;;26.67;;
66585;SDS011;53444;45.822;16.092;2024-02-28T07:52:24;54.85;;;28.45;;
66585;SDS011;53444;45.822;16.092;2024-02-28T07:54:51;48.75;;;27.85;;
66585;SDS011;53444;45.822;16.092;2024-02-28T07:57:17;53.42;;;27.38;;
66585;SDS011;53444;45.822;16.092;2024-02-28T07:59:44;48.33;;;27.73;;
66585;SDS011;53444;45.822;16.092;2024-02-28T08:02:11;50.45;;;27.60;;
66585;SDS011;53444;45.822;16.092;2024-02-28T08:04:38;48.08;;;29.10;;
66585;SDS011;53444;45.822;16.092;2024-02-28T08:07:06;52.38;;;28.45;;
66585;SDS011;53444;45.822;16.092;2024-02-28T08:09:33;50.75;;;27.63;;
66585;SDS011;53444;45.822;16.092;2024-02-28T08:11:59;51.88;;;27.23;;
66585;SDS011;53444;45.822;16.092;2024-02-28T08:14:26;47.33;;;27.05;;
66585;SDS011;53444;45.822;16.092;2024-02-28T08:16:54;51.88;;;26.10;;
66585;SDS011;53444;45.822;16.092;2024-02-28T08:19:21;49.17;;;26.90;;
66585;SDS011;53444;45.822;16.092;2024-02-28T08:21:47;45.05;;;27.95;;
66585;SDS011;53444;45.822;16.092;2024-02-28T08:24:16;46.58;;;26.00;;
66585;SDS011;53444;45.822;16.092;2024-02-28T08:26:42;49.85;;;26.58;;
66585;SDS011;53444;45.822;16.092;2024-02-28T08:29:09;43.75;;;26.70;;
66585;SDS011;53444;45.822;16.092;2024-02-28T08:31:39;44.47;;;26.92;;
66585;SDS011;53444;45.822;16.092;2024-02-28T08:34:07;46.45;;;26.25;;
66585;SDS011;53444;45.822;16.092;2024-02-28T08:36:33;44.35;;;25.83;;
66585;SDS011;53444;45.822;16.092;2024-02-28T08:39:00;47.13;;;27.00;;
66585;SDS011;53444;45.822;16.092;2024-02-28T08:41:30;47.65;;;28.30;;
66585;SDS011;53444;45.822;16.092;2024-02-28T08:43:58;48.72;;;26.70;;
66585;SDS011;53444;45.822;16.092;2024-02-28T08:46:24;43.53;;;25.98;;
66585;SDS011;53444;45.822;16.092;2024-02-28T08:48:51;45.65;;;26.42;;
66585;SDS011;53444;45.822;16.092;2024-02-28T08:51:18;44.03;;;25.20;;
66585;SDS011;53444;45.822;16.092;2024-02-28T08:53:44;46.60;;;26.35;;
66585;SDS011;53444;45.822;16.092;2024-02-28T08:56:11;45.03;;;25.50;;
66585;SDS011;53444;45.822;16.092;2024-02-28T08:58:39;43.00;;;24.88;;
66585;SDS011;53444;45.822;16.092;2024-02-28T09:01:06;38.40;;;23.20;;
66585;SDS011;53444;45.822;16.092;2024-02-28T09:03:32;37.58;;;22.80;;
66585;SDS011;53444;45.822;16.092;2024-02-28T09:05:59;39.00;;;21.40;;
66585;SDS011;53444;45.822;16.092;2024-02-28T09:08:26;39.70;;;22.50;;
66585;SDS011;53444;45.822;16.092;2024-02-28T09:10:53;37.13;;;21.63;;
66585;SDS011;53444;45.822;16.092;2024-02-28T09:13:19;41.40;;;22.58;;
66585;SDS011;53444;45.822;16.092;2024-02-28T09:15:48;41.13;;;23.10;;
66585;SDS011;53444;45.822;16.092;2024-02-28T09:18:14;41.35;;;23.02;;
66585;SDS011;53444;45.822;16.092;2024-02-28T09:20:42;41.28;;;22.98;;
66585;SDS011;53444;45.822;16.092;2024-02-28T09:23:09;39.10;;;22.67;;
66585;SDS011;53444;45.822;16.092;2024-02-28T09:25:35;39.17;;;22.25;;
66585;SDS011;53444;45.822;16.092;2024-02-28T09:28:02;49.30;;;22.63;;
66585;SDS011;53444;45.822;16.092;2024-02-28T09:30:29;56.33;;;30.33;;
66585;SDS011;53444;45.822;16.092;2024-02-28T09:32:57;40.03;;;23.33;;
66585;SDS011;53444;45.822;16.092;2024-02-28T09:35:24;37.72;;;22.55;;
66585;SDS011;53444;45.822;16.092;2024-02-28T09:37:51;42.65;;;23.00;;
66585;SDS011;53444;45.822;16.092;2024-02-28T09:40:17;56.40;;;29.55;;
66585;SDS011;53444;45.822;16.092;2024-02-28T09:42:46;45.13;;;26.73;;
66585;SDS011;53444;45.822;16.092;2024-02-28T09:45:17;57.45;;;28.45;;
66585;SDS011;53444;45.822;16.092;2024-02-28T09:47:46;43.88;;;24.67;;
66585;SDS011;53444;45.822;16.092;2024-02-28T09:50:14;40.53;;;22.52;;
66585;SDS011;53444;45.822;16.092;2024-02-28T09:52:41;49.15;;;27.30;;
66585;SDS011;53444;45.822;16.092;2024-02-28T09:55:08;46.92;;;27.40;;
66585;SDS011;53444;45.822;16.092;2024-02-28T09:57:35;44.38;;;24.13;;
66585;SDS011;53444;45.822;16.092;2024-02-28T10:00:05;45.85;;;28.17;;
66585;SDS011;53444;45.822;16.092;2024-02-28T10:02:34;43.40;;;25.20;;
66585;SDS011;53444;45.822;16.092;2024-02-28T10:05:03;41.03;;;25.13;;
66585;SDS011;53444;45.822;16.092;2024-02-28T10:07:32;47.42;;;24.75;;
66585;SDS011;53444;45.822;16.092;2024-02-28T10:09:59;43.95;;;25.88;;
66585;SDS011;53444;45.822;16.092;2024-02-28T10:12:26;42.95;;;24.95;;
66585;SDS011;53444;45.822;16.092;2024-02-28T10:14:53;40.95;;;24.15;;
66585;SDS011;53444;45.822;16.092;2024-02-28T10:17:19;39.47;;;23.42;;
66585;SDS011;53444;45.822;16.092;2024-02-28T10:19:46;39.50;;;23.23;;
66585;SDS011;53444;45.822;16.092;2024-02-28T10:22:13;38.30;;;22.90;;
66585;SDS011;53444;45.822;16.092;2024-02-28T10:24:41;42.72;;;23.70;;
66585;SDS011;53444;45.822;16.092;2024-02-28T10:27:08;35.97;;;21.83;;
66585;SDS011;53444;45.822;16.092;2024-02-28T10:29:35;35.28;;;21.50;;
66585;SDS011;53444;45.822;16.092;2024-02-28T10:32:02;38.50;;;22.80;;
66585;SDS011;53444;45.822;16.092;2024-02-28T10:34:30;36.08;;;22.17;;
66585;SDS011;53444;45.822;16.092;2024-02-28T10:36:59;40.20;;;21.38;;
66585;SDS011;53444;45.822;16.092;2024-02-28T10:39:27;38.00;;;21.67;;
66585;SDS011;53444;45.822;16.092;2024-02-28T10:41:56;34.00;;;21.08;;
66585;SDS011;53444;45.822;16.092;2024-02-28T10:44:27;36.45;;;22.17;;
66585;SDS011;53444;45.822;16.092;2024-02-28T10:46:54;36.60;;;21.55;;
66585;SDS011;53444;45.822;16.092;2024-02-28T10:49:20;31.90;;;19.35;;
66585;SDS011;53444;45.822;16.092;2024-02-28T10:51:48;32.17;;;18.55;;
66585;SDS011;53444;45.822;16.092;2024-02-28T10:54:17;32.53;;;18.73;;
66585;SDS011;53444;45.822;16.092;2024-02-28T10:56:46;33.95;;;19.13;;
66585;SDS011;53444;45.822;16.092;2024-02-28T10:59:15;33.42;;;18.92;;
66585;SDS011;53444;45.822;16.092;2024-02-28T11:01:42;30.27;;;18.70;;
66585;SDS011;53444;45.822;16.092;2024-02-28T11:04:11;42.30;;;22.30;;
66585;SDS011;53444;45.822;16.092;2024-02-28T11:06:47;37.28;;;21.05;;
66585;SDS011;53444;45.822;16.092;2024-02-28T11:09:18;32.72;;;19.08;;
66585;SDS011;53444;45.822;16.092;2024-02-28T11:11:47;33.78;;;19.67;;
66585;SDS011;53444;45.822;16.092;2024-02-28T11:14:16;35.65;;;18.58;;
66585;SDS011;53444;45.822;16.092;2024-02-28T11:16:46;30.95;;;18.23;;
66585;SDS011;53444;45.822;16.092;2024-02-28T11:19:19;32.05;;;18.85;;
66585;SDS011;53444;45.822;16.092;2024-02-28T11:21:51;34.03;;;19.67;;
66585;SDS011;53444;45.822;16.092;2024-02-28T11:24:22;34.47;;;21.65;;
66585;SDS011;53444;45.822;16.092;2024-02-28T11:26:49;35.85;;;19.77;;
66585;SDS011;53444;45.822;16.092;2024-02-28T11:29:18;33.10;;;19.38;;
66585;SDS011;53444;45.822;16.092;2024-02-28T11:31:48;33.88;;;18.75;;
66585;SDS011;53444;45.822;16.092;2024-02-28T11:34:15;35.78;;;21.23;;
66585;SDS011;53444;45.822;16.092;2024-02-28T11:36:41;43.70;;;24.95;;
66585;SDS011;53444;45.822;16.092;2024-02-28T11:39:08;39.67;;;23.40;;
66585;SDS011;53444;45.822;16.092;2024-02-28T11:41:35;40.05;;;23.35;;
66585;SDS011;53444;45.822;16.092;2024-02-28T11:44:02;42.78;;;26.95;;
66585;SDS011;53444;45.822;16.092;2024-02-28T11:46:30;68.22;;;35.90;;
66585;SDS011;53444;45.822;16.092;2024-02-28T11:48:56;40.17;;;24.15;;
66585;SDS011;53444;45.822;16.092;2024-02-28T11:51:23;42.28;;;24.65;;
66585;SDS011;53444;45.822;16.092;2024-02-28T11:53:50;38.20;;;23.63;;
66585;SDS011;53444;45.822;16.092;2024-02-28T11:56:17;38.60;;;22.08;;
66585;SDS011;53444;45.822;16.092;2024-02-28T11:58:49;37.28;;;21.45;;
66585;SDS011;53444;45.822;16.092;2024-02-28T12:01:16;34.17;;;21.52;;
66585;SDS011;53444;45.822;16.092;2024-02-28T12:03:45;34.95;;;20.73;;
66585;SDS011;53444;45.822;16.092;2024-02-28T12:06:12;36.90;;;22.13;;
66585;SDS011;53444;45.822;16.092;2024-02-28T12:08:39;37.30;;;21.85;;
66585;SDS011;53444;45.822;16.092;2024-02-28T12:11:06;37.00;;;21.70;;
66585;SDS011;53444;45.822;16.092;2024-02-28T12:13:36;36.88;;;22.38;;
66585;SDS011;53444;45.822;16.092;2024-02-28T12:16:03;37.08;;;22.58;;
66585;SDS011;53444;45.822;16.092;2024-02-28T12:18:30;39.15;;;21.88;;
66585;SDS011;53444;45.822;16.092;2024-02-28T12:20:58;42.03;;;25.33;;
66585;SDS011;53444;45.822;16.092;2024-02-28T12:23:25;39.08;;;24.85;;
66585;SDS011;53444;45.822;16.092;2024-02-28T12:25:52;51.30;;;29.55;;
66585;SDS011;53444;45.822;16.092;2024-02-28T12:28:18;45.05;;;26.30;;
66585;SDS011;53444;45.822;16.092;2024-02-28T12:30:45;43.80;;;25.65;;
66585;SDS011;53444;45.822;16.092;2024-02-28T12:33:12;48.67;;;29.27;;
66585;SDS011;53444;45.822;16.092;2024-02-28T12:35:39;46.50;;;27.25;;
66585;SDS011;53444;45.822;16.092;2024-02-28T12:38:08;45.63;;;27.63;;
66585;SDS011;53444;45.822;16.092;2024-02-28T12:40:34;44.72;;;26.42;;
66585;SDS011;53444;45.822;16.092;2024-02-28T12:43:01;55.05;;;30.88;;
66585;SDS011;53444;45.822;16.092;2024-02-28T12:45:28;45.10;;;26.42;;
66585;SDS011;53444;45.822;16.092;2024-02-28T12:47:56;75.13;;;43.13;;
66585;SDS011;53444;45.822;16.092;2024-02-28T12:50:23;66.18;;;39.72;;
66585;SDS011;53444;45.822;16.092;2024-02-28T12:52:50;77.93;;;49.53;;
66585;SDS011;53444;45.822;16.092;2024-02-28T12:55:20;48.25;;;25.63;;
66585;SDS011;53444;45.822;16.092;2024-02-28T12:57:47;43.47;;;24.73;;
66585;SDS011;53444;45.822;16.092;2024-02-28T13:00:14;42.97;;;24.83;;
66585;SDS011;53444;45.822;16.092;2024-02-28T13:02:41;40.38;;;24.08;;
66585;SDS011;53444;45.822;16.092;2024-02-28T13:05:08;45.30;;;27.35;;
66585;SDS011;53444;45.822;16.092;2024-02-28T13:07:36;40.75;;;25.40;;
66585;SDS011;53444;45.822;16.092;2024-02-28T13:10:02;66.53;;;37.00;;
66585;SDS011;53444;45.822;16.092;2024-02-28T13:12:31;95.80;;;54.67;;
66585;SDS011;53444;45.822;16.092;2024-02-28T13:14:58;55.92;;;34.00;;
66585;SDS011;53444;45.822;16.092;2024-02-28T13:17:25;51.58;;;30.23;;
66585;SDS011;53444;45.822;16.092;2024-02-28T13:19:52;46.92;;;26.90;;
66585;SDS011;53444;45.822;16.092;2024-02-28T13:22:18;62.05;;;39.55;;
66585;SDS011;53444;45.822;16.092;2024-02-28T13:24:45;66.75;;;38.95;;
66585;SDS011;53444;45.822;16.092;2024-02-28T13:27:11;51.92;;;28.88;;
66585;SDS011;53444;45.822;16.092;2024-02-28T13:29:40;46.65;;;28.77;;
66585;SDS011;53444;45.822;16.092;2024-02-28T13:32:06;48.38;;;28.35;;
66585;SDS011;53444;45.822;16.092;2024-02-28T13:34:33;45.55;;;27.38;;
66585;SDS011;53444;45.822;16.092;2024-02-28T13:37:00;45.88;;;27.60;;
66585;SDS011;53444;45.822;16.092;2024-02-28T13:39:26;52.95;;;31.90;;
66585;SDS011;53444;45.822;16.092;2024-02-28T13:41:55;53.42;;;33.88;;
66585;SDS011;53444;45.822;16.092;2024-02-28T13:44:22;48.95;;;29.52;;
66585;SDS011;53444;45.822;16.092;2024-02-28T13:46:50;45.03;;;27.70;;
66585;SDS011;53444;45.822;16.092;2024-02-28T13:49:18;52.67;;;28.88;;
66585;SDS011;53444;45.822;16.092;2024-02-28T13:51:45;47.72;;;28.13;;
66585;SDS011;53444;45.822;16.092;2024-02-28T13:54:14;45.20;;;28.30;;
66585;SDS011;53444;45.822;16.092;2024-02-28T13:56:41;43.15;;;26.80;;
66585;SDS011;53444;45.822;16.092;2024-02-28T13:59:08;48.30;;;27.38;;
66585;SDS011;53444;45.822;16.092;2024-02-28T14:01:35;46.78;;;26.45;;
66585;SDS011;53444;45.822;16.092;2024-02-28T14:04:02;46.90;;;27.48;;
66585;SDS011;53444;45.822;16.092;2024-02-28T14:06:29;46.83;;;27.27;;
66585;SDS011;53444;45.822;16.092;2024-02-28T14:08:56;48.40;;;28.38;;
66585;SDS011;53444;45.822;16.092;2024-02-28T14:11:23;45.17;;;26.52;;
66585;SDS011;53444;45.822;16.092;2024-02-28T14:13:50;46.08;;;28.15;;